Terminal Aerodrome Forecast
Issued by NWS Raleigh/Durham, NC

Home | Current Version | Previous Version | Text Only | Print | Product List | Glossary On
Versions: 1 2 3 4 5 6 7 8 9 10 11 12 13 14 15 16 17 18 19 20 21 22 23 24 25 26 27 28 29 30 31 32 33 34
143
FTUS42 KRAH 140535
TAFFAY
TAF
KFAY 140535Z 1406/1506 01008KT P6SM SKC
     FM141400 05010KT P6SM SCT120
     FM142000 08008KT P6SM OVC100
     FM150500 07009KT P6SM OVC040=

USA.gov is the U.S. government's official web portal to all federal, state and local government web resources and services.